Time;durP1;ratioP1;P1;durP2;ratioP2;P2;SDS_P1;SDS_P2;PMS_P1;PMS_P2;Temp;Humidity;BMP_temperature;BMP_pressure;BME280_temperature;BME280_humidity;BME280_pressure;Samples;Min_cycle;Max_cycle;Signal;HPM_P1;HPM_P2
2023/01/27 00:00:51;;;;;;;;;;;;;;;7.39;63.98;103020.81;7361498;19;19923;-56
2023/01/27 00:03:17;;;;;;;;;;;;;;;7.35;63.86;103018.97;7362855;19;19922;-56
2023/01/27 00:05:42;;;;;;;;;;;;;;;7.32;64.07;103017.19;7362128;19;19943;-57
2023/01/27 00:08:08;;;;;;;;;;;;;;;7.30;64.05;103011.06;7359245;19;20311;-57
2023/01/27 00:10:34;;;;;;;;;;;;;;;7.27;64.18;103013.56;7363659;19;19914;-56
2023/01/27 00:15:43;;;;;;;;;;;;;;;7.17;63.75;103004.63;7359513;19;20567;-56
2023/01/27 00:18:09;;;;;;;;;;;;;;;7.15;63.82;103015.84;7361778;19;21340;-56
2023/01/27 00:26:08;;;;;;;;;;;;;;;7.06;64.24;103005.19;7359840;19;19941;-56
2023/01/27 00:28:34;;;;;;;;;;;;;;;7.03;64.20;102999.03;7362090;19;19934;-56
2023/01/27 00:30:59;;;;;;;;;;;;;;;7.01;64.43;102995.53;7361351;19;19941;-55
2023/01/27 00:33:28;;;;;;;;;;;;;;;6.98;64.23;102987.63;7358107;19;19922;-56
2023/01/27 00:36:00;;;;;;;;;;;;;;;6.96;64.51;102988.44;7357289;19;20656;-57
2023/01/27 00:38:30;;;;;;;;;;;;;;;6.93;64.56;102984.03;7361292;19;19922;-56
2023/01/27 00:43:39;;;;;;;;;;;;;;;6.88;64.44;102977.81;7359207;19;19932;-56
2023/01/27 00:46:04;;;;;;;;;;;;;;;6.86;64.71;102971.72;7361028;19;21580;-57
2023/01/27 00:48:30;;;;;;;;;;;;;;;6.83;64.56;102976.81;7360392;19;20438;-56
2023/01/27 00:50:55;;;;;;;;;;;;;;;6.81;64.83;102968.09;7362080;19;20280;-56
2023/01/27 00:53:21;;;;;;;;;;;;;;;6.79;64.76;102968.88;7361879;19;19926;-56
2023/01/27 00:55:46;;;;;;;;;;;;;;;6.76;64.65;102965.38;7363245;19;19923;-57
2023/01/27 00:58:12;;;;;;;;;;;;;;;6.74;64.67;102966.16;7361365;19;20590;-57
2023/01/27 01:00:37;;;;;;;;;;;;;;;6.71;64.76;102956.56;7363570;19;19927;-56
2023/01/27 01:03:02;;;;;;;;;;;;;;;6.69;64.33;102952.16;7359991;19;19927;-56
2023/01/27 01:05:27;;;;;;;;;;;;;;;6.68;64.44;102955.59;7361482;19;19918;-55
2023/01/27 01:07:52;;;;;;;;;;;;;;;6.65;64.65;102952.91;7364782;19;19922;-57
2023/01/27 01:10:18;;;;;;;;;;;;;;;6.61;64.76;102954.53;7356251;19;19926;-56
2023/01/27 01:12:43;;;;;;;;;;;;;;;6.59;65.00;102952.72;7359126;19;19938;-57
2023/01/27 01:15:08;;;;;;;;;;;;;;;6.56;64.72;102955.22;7358530;19;19919;-56
2023/01/27 01:17:34;;;;;;;;;;;;;;;6.53;64.89;102949.94;7359758;19;19931;-56
2023/01/27 01:19:59;;;;;;;;;;;;;;;6.49;64.69;102948.97;7362269;19;19915;-56
2023/01/27 01:22:24;;;;;;;;;;;;;;;6.46;64.69;102948.88;7361782;19;20394;-57
2023/01/27 01:24:49;;;;;;;;;;;;;;;6.41;64.51;102940.94;7360819;19;19926;-56
2023/01/27 01:27:15;;;;;;;;;;;;;;;6.39;64.47;102941.75;7360404;19;19926;-55
2023/01/27 01:29:40;;;;;;;;;;;;;;;6.35;64.56;102940.78;7360620;19;19921;-57
2023/01/27 01:32:08;;;;;;;;;;;;;;;6.32;64.76;102935.47;7361730;19;19923;-56
2023/01/27 01:34:34;;;;;;;;;;;;;;;6.30;64.73;102941.47;7360162;19;19999;-56
2023/01/27 01:36:59;;;;;;;;;;;;;;;6.26;64.52;102937.88;7359363;19;19931;-57
2023/01/27 01:39:24;;;;;;;;;;;;;;;6.23;64.95;102938.69;7361434;19;19926;-56
2023/01/27 01:41:49;;;;;;;;;;;;;;;6.20;64.57;102940.31;7361018;19;20603;-56
2023/01/27 01:44:18;;;;;;;;;;;;;;;6.18;65.04;102941.94;7359523;19;19919;-56
2023/01/27 01:46:43;;;;;;;;;;;;;;;6.13;65.01;102934.06;7357319;19;20328;-56
2023/01/27 01:49:09;;;;;;;;;;;;;;;6.12;64.75;102941.75;7357459;19;19919;-56
2023/01/27 01:51:39;;;;;;;;;;;;;;;6.09;65.06;102936.50;7358420;19;19915;-55
2023/01/27 01:54:07;;;;;;;;;;;;;;;6.06;64.84;102931.19;7361487;19;20466;-56
2023/01/27 01:56:35;;;;;;;;;;;;;;;6.04;64.78;102925.09;7358838;19;20631;-56
2023/01/27 01:59:06;;;;;;;;;;;;;;;6.00;64.87;102921.50;7359532;19;20710;-56
2023/01/27 02:01:31;;;;;;;;;;;;;;;5.97;64.73;102922.28;7354274;19;19919;-56
2023/01/27 02:03:59;;;;;;;;;;;;;;;5.94;64.97;102924.78;7359934;19;19943;-56
2023/01/27 02:06:25;;;;;;;;;;;;;;;5.92;65.33;102929.03;7361542;19;19922;-56
2023/01/27 02:08:51;;;;;;;;;;;;;;;5.90;65.05;102927.19;7357179;19;19935;-55
2023/01/27 02:11:16;;;;;;;;;;;;;;;5.86;65.01;102926.22;7357118;19;19915;-56
2023/01/27 02:13:42;;;;;;;;;;;;;;;5.85;64.88;102921.00;7360993;19;20752;-57
2023/01/27 02:16:09;;;;;;;;;;;;;;;5.82;65.03;102924.34;7360770;19;19922;-56
2023/01/27 02:18:34;;;;;;;;;;;;;;;5.81;65.10;102913.94;7357030;19;19923;-56
2023/01/27 02:20:59;;;;;;;;;;;;;;;5.77;64.96;102910.34;7359280;19;20310;-56
2023/01/27 02:23:26;;;;;;;;;;;;;;;5.75;65.42;102913.75;7360370;19;19942;-55
2023/01/27 02:25:57;;;;;;;;;;;;;;;5.72;65.28;102911.91;7358763;19;20666;-56
2023/01/27 02:28:25;;;;;;;;;;;;;;;5.68;65.01;102904.91;7356271;19;20017;-56
2023/01/27 02:30:50;;;;;;;;;;;;;;;5.66;65.08;102909.13;7356054;19;19917;-56
2023/01/27 02:33:16;;;;;;;;;;;;;;;5.64;65.59;102908.22;7357170;19;19919;-56
2023/01/27 02:36:00;;;;;;;;;;;;;;;5.61;65.64;102910.69;7357848;19;19978;-56
2023/01/27 02:38:36;;;;;;;;;;;;;;;5.59;65.38;102902.00;7356898;19;19940;-57
2023/01/27 02:41:10;;;;;;;;;;;;;;;5.54;65.31;102899.25;7355110;19;19943;-57
2023/01/27 02:43:35;;;;;;;;;;;;;;;5.52;65.25;102894.84;7359414;19;20393;-55
2023/01/27 02:46:00;;;;;;;;;;;;;;;5.51;65.39;102903.44;7361854;19;25191;-56
2023/01/27 02:48:25;;;;;;;;;;;;;;;5.47;65.17;102897.25;7357458;19;19922;-56
2023/01/27 02:50:51;;;;;;;;;;;;;;;5.45;65.15;102906.72;7358960;19;19923;-56
2023/01/27 02:53:16;;;;;;;;;;;;;;;5.42;65.28;102902.31;7356073;19;20339;-55
2023/01/27 02:55:41;;;;;;;;;;;;;;;5.40;65.36;102906.56;7360382;19;20342;-57
2023/01/27 02:58:06;;;;;;;;;;;;;;;5.39;65.23;102907.38;7343040;19;19928;-57
2023/01/27 03:00:32;;;;;;;;;;;;;;;5.37;65.33;102906.47;7361378;19;19922;-57
2023/01/27 03:02:57;;;;;;;;;;;;;;;5.37;65.60;102908.16;7359203;19;19923;-55
2023/01/27 03:05:22;;;;;;;;;;;;;;;5.36;65.44;102907.28;7352050;19;19918;-56
2023/01/27 03:07:48;;;;;;;;;;;;;;;5.35;65.53;102913.28;7352122;19;19931;-56
2023/01/27 03:10:13;;;;;;;;;;;;;;;5.35;65.91;102915.88;7356489;19;19923;-57
2023/01/27 03:12:38;;;;;;;;;;;;;;;5.35;65.68;102905.50;7359906;19;19937;-56
2023/01/27 03:20:31;;;;;;;;;;;;;;;5.33;65.82;102894.22;7358313;19;19925;-56
2023/01/27 03:22:56;;;;;;;;;;;;;;;5.31;65.73;102893.28;7362743;19;22026;-56
2023/01/27 03:25:22;;;;;;;;;;;;;;;5.31;65.67;102898.47;7352456;19;19911;-56
2023/01/27 03:27:47;;;;;;;;;;;;;;;5.29;65.60;102892.34;7358349;19;19925;-56
2023/01/27 03:30:12;;;;;;;;;;;;;;;5.21;65.52;102876.53;7359447;19;19934;-56
2023/01/27 03:32:45;;;;;;;;;;;;;;;5.24;65.54;102883.56;7357392;19;19946;-56
2023/01/27 03:35:11;;;;;;;;;;;;;;;5.23;65.68;102883.50;7355903;19;19927;-56
2023/01/27 03:48:32;;;;;;;;;;;;;;;5.08;65.57;102871.78;7357496;19;20371;-56
2023/01/27 03:50:57;;;;;;;;;;;;;;;5.06;65.52;102867.38;7357173;19;20990;-56
2023/01/27 03:53:23;;;;;;;;;;;;;;;5.05;65.44;102878.56;7356555;19;19918;-56
2023/01/27 03:55:48;;;;;;;;;;;;;;;5.03;65.36;102867.28;7358479;19;19926;-56
2023/01/27 03:58:19;;;;;;;;;;;;;;;5.01;65.25;102874.09;7354303;19;20657;-54
2023/01/27 04:00:45;;;;;;;;;;;;;;;5.00;65.51;102872.34;7357471;19;19942;-56
2023/01/27 04:08:40;;;;;;;;;;;;;;;4.94;65.37;102858.34;7355617;19;19935;-56
2023/01/27 04:13:49;;;;;;;;;;;;;;;4.91;65.46;102868.59;7358011;19;21113;-56
2023/01/27 04:16:16;;;;;;;;;;;;;;;4.90;65.34;102859.06;7358759;19;19942;-56
2023/01/27 04:18:42;;;;;;;;;;;;;;;4.90;65.61;102861.66;7360326;19;19922;-55
2023/01/27 04:21:07;;;;;;;;;;;;;;;4.90;65.38;102856.47;7339834;19;20651;-56
2023/01/27 04:23:32;;;;;;;;;;;;;;;4.89;65.65;102851.25;7357519;19;19926;-56
2023/01/27 04:25:59;;;;;;;;;;;;;;;4.88;65.69;102852.97;7363355;19;19982;-56
2023/01/27 04:28:24;;;;;;;;;;;;;;;4.83;65.60;102843.28;7366803;19;19926;-56
2023/01/27 04:30:49;;;;;;;;;;;;;;;4.88;66.00;102842.59;7362981;19;19936;-57
2023/01/27 04:33:15;;;;;;;;;;;;;;;4.87;65.44;102843.44;7363337;19;19958;-56
2023/01/27 04:35:44;;;;;;;;;;;;;;;4.87;65.76;102851.22;7365798;19;19929;-56
2023/01/27 04:38:09;;;;;;;;;;;;;;;4.87;65.57;102853.78;7362373;19;19922;-56
2023/01/27 04:40:34;;;;;;;;;;;;;;;4.87;65.63;102855.50;7362916;19;19954;-56
2023/01/27 04:43:00;;;;;;;;;;;;;;;4.87;65.92;102855.50;7366329;19;19926;-56
2023/01/27 04:45:25;;;;;;;;;;;;;;;4.87;65.65;102860.69;7363076;19;19929;-55
2023/01/27 04:47:50;;;;;;;;;;;;;;;4.87;65.65;102856.38;7364663;19;19957;-56
2023/01/27 04:50:16;;;;;;;;;;;;;;;4.87;66.03;102858.09;7362308;19;19926;-56
2023/01/27 04:52:41;;;;;;;;;;;;;;;4.86;65.96;102854.59;7365825;19;19926;-56
2023/01/27 04:55:06;;;;;;;;;;;;;;;4.86;66.09;102857.19;7361526;19;19919;-56
2023/01/27 04:57:32;;;;;;;;;;;;;;;4.85;65.98;102858.03;7364969;19;19918;-56
2023/01/27 04:59:57;;;;;;;;;;;;;;;4.85;66.04;102858.03;7362887;19;19926;-55
2023/01/27 05:02:23;;;;;;;;;;;;;;;4.84;66.17;102855.38;7361731;19;20005;-56
2023/01/27 05:04:49;;;;;;;;;;;;;;;4.83;65.83;102858.81;7359391;19;20026;-57
2023/01/27 05:07:14;;;;;;;;;;;;;;;4.81;65.95;102861.31;7366223;19;19915;-56
2023/01/27 05:09:39;;;;;;;;;;;;;;;4.79;65.78;102857.81;7360613;19;20383;-56
2023/01/27 05:12:04;;;;;;;;;;;;;;;4.77;65.57;102861.19;7365983;19;19957;-55
2023/01/27 05:14:30;;;;;;;;;;;;;;;4.74;65.94;102858.47;7364065;19;19926;-56
2023/01/27 05:16:55;;;;;;;;;;;;;;;4.73;65.92;102862.78;7365907;19;19919;-56
2023/01/27 05:19:20;;;;;;;;;;;;;;;4.71;65.67;102858.34;7364041;19;19930;-55
2023/01/27 05:21:46;;;;;;;;;;;;;;;4.68;66.20;102861.72;7363385;19;19915;-56
2023/01/27 05:24:11;;;;;;;;;;;;;;;4.67;66.34;102862.56;7362760;19;19934;-51
2023/01/27 05:26:36;;;;;;;;;;;;;;;4.65;66.25;102853.84;7363587;19;19915;-56
2023/01/27 05:29:01;;;;;;;;;;;;;;;4.63;66.16;102855.50;7363513;19;19933;-56
2023/01/27 05:31:28;;;;;;;;;;;;;;;4.62;66.09;102856.34;7364090;19;19956;-56
2023/01/27 05:33:54;;;;;;;;;;;;;;;4.60;66.44;102856.25;7363735;19;19952;-56
2023/01/27 05:36:22;;;;;;;;;;;;;;;4.59;65.91;102858.81;7361044;19;19929;-56
2023/01/27 05:38:47;;;;;;;;;;;;;;;4.57;66.28;102847.53;7361346;19;19922;-56
2023/01/27 05:41:13;;;;;;;;;;;;;;;4.55;66.49;102856.91;7365050;19;20709;-56
2023/01/27 05:43:40;;;;;;;;;;;;;;;4.54;66.60;102860.34;7362332;19;19990;-56
2023/01/27 05:46:07;;;;;;;;;;;;;;;4.53;66.45;102858.59;7364312;19;19999;-57
2023/01/27 05:48:33;;;;;;;;;;;;;;;4.53;66.71;102853.41;7360207;19;19925;-56
2023/01/27 05:50:58;;;;;;;;;;;;;;;4.53;66.37;102863.75;7363001;19;21370;-56
2023/01/27 05:53:24;;;;;;;;;;;;;;;4.53;66.85;102864.63;7360879;19;19926;-56
2023/01/27 05:55:50;;;;;;;;;;;;;;;4.55;66.86;102862.09;7361177;19;19929;-55
2023/01/27 05:58:15;;;;;;;;;;;;;;;4.56;66.57;102863.84;7363309;19;19958;-55
2023/01/27 06:00:41;;;;;;;;;;;;;;;4.57;66.85;102863.06;7363504;19;21632;-56
2023/01/27 06:03:06;;;;;;;;;;;;;;;4.61;66.84;102862.31;7361487;19;19910;-56
2023/01/27 06:05:31;;;;;;;;;;;;;;;4.64;66.74;102867.59;7358995;19;19915;-56
2023/01/27 06:07:56;;;;;;;;;;;;;;;4.67;67.00;102868.63;7363203;19;19959;-55
2023/01/27 06:10:22;;;;;;;;;;;;;;;4.70;66.90;102862.66;7364384;19;19933;-55
2023/01/27 06:12:47;;;;;;;;;;;;;;;4.74;67.19;102867.13;7362569;19;19939;-56
2023/01/27 06:15:12;;;;;;;;;;;;;;;4.75;66.82;102855.94;7362816;19;19918;-55
2023/01/27 06:17:37;;;;;;;;;;;;;;;4.79;66.83;102859.53;7362225;19;19951;-56
2023/01/27 06:20:03;;;;;;;;;;;;;;;4.82;66.98;102860.53;7361484;19;19923;-54
2023/01/27 06:22:28;;;;;;;;;;;;;;;4.86;67.05;102854.59;7361132;19;19939;-55
2023/01/27 06:24:53;;;;;;;;;;;;;;;4.88;66.99;102858.13;7361252;19;19940;-56
2023/01/27 06:27:18;;;;;;;;;;;;;;;4.91;67.07;102860.81;7362436;19;21085;-56
2023/01/27 06:29:44;;;;;;;;;;;;;;;4.95;67.22;102862.69;7359169;19;19922;-56
2023/01/27 06:32:09;;;;;;;;;;;;;;;4.97;66.83;102852.41;7364040;19;19927;-56
2023/01/27 06:34:34;;;;;;;;;;;;;;;5.00;67.13;102846.44;7362300;19;20335;-55
2023/01/27 06:36:59;;;;;;;;;;;;;;;5.03;66.94;102854.34;7363294;19;20633;-56
2023/01/27 06:39:25;;;;;;;;;;;;;;;5.04;67.08;102846.59;7360244;19;19927;-55
2023/01/27 06:41:50;;;;;;;;;;;;;;;5.06;67.12;102841.47;7361303;19;19923;-55
2023/01/27 06:44:15;;;;;;;;;;;;;;;5.09;67.06;102841.59;7361238;19;19915;-56
2023/01/27 06:46:40;;;;;;;;;;;;;;;5.11;66.62;102847.69;7360604;19;20023;-55
2023/01/27 06:49:06;;;;;;;;;;;;;;;5.11;66.83;102853.75;7362058;19;20552;-52
2023/01/27 06:51:31;;;;;;;;;;;;;;;5.12;66.87;102850.34;7358522;19;20266;-54
2023/01/27 06:53:56;;;;;;;;;;;;;;;5.14;66.85;102858.16;7361821;19;19926;-56
2023/01/27 06:56:21;;;;;;;;;;;;;;;5.16;66.77;102856.50;7361633;19;19922;-56
2023/01/27 06:58:46;;;;;;;;;;;;;;;5.16;66.68;102849.59;7351467;19;20434;-55
2023/01/27 07:01:12;;;;;;;;;;;;;;;5.18;67.11;102852.25;7361253;19;20278;-57
2023/01/27 07:03:37;;;;;;;;;;;;;;;5.19;66.93;102848.84;7359487;19;19923;-56
2023/01/27 07:06:02;;;;;;;;;;;;;;;5.21;67.08;102847.16;7359218;19;19939;-56
2023/01/27 07:08:28;;;;;;;;;;;;;;;5.21;66.73;102847.16;7360416;19;19918;-56
2023/01/27 07:10:53;;;;;;;;;;;;;;;5.22;67.08;102848.97;7362221;19;19927;-56
2023/01/27 07:13:18;;;;;;;;;;;;;;;5.25;66.68;102848.16;7357942;19;20280;-55
2023/01/27 07:15:43;;;;;;;;;;;;;;;5.26;66.70;102845.63;7358284;19;19918;-56
2023/01/27 07:18:10;;;;;;;;;;;;;;;5.27;66.90;102842.22;7357772;19;19910;-55
2023/01/27 07:20:35;;;;;;;;;;;;;;;5.27;67.24;102839.63;7357094;19;19950;-56
2023/01/27 07:23:01;;;;;;;;;;;;;;;5.29;66.94;102845.72;7356984;19;19974;-56
2023/01/27 07:25:27;;;;;;;;;;;;;;;5.31;67.08;102849.25;7358394;19;19919;-55
2023/01/27 07:27:52;;;;;;;;;;;;;;;5.33;66.98;102857.97;7354859;19;19946;-56
2023/01/27 07:30:18;;;;;;;;;;;;;;;5.35;66.96;102852.81;7358779;19;20408;-56
2023/01/27 07:32:43;;;;;;;;;;;;;;;5.36;67.21;102854.56;7357269;19;19914;-57
2023/01/27 07:35:08;;;;;;;;;;;;;;;5.37;67.32;102862.41;7354587;19;20339;-54
2023/01/27 07:37:34;;;;;;;;;;;;;;;5.39;67.10;102873.72;7361443;19;20694;-53
2023/01/27 07:39:59;;;;;;;;;;;;;;;5.40;67.02;102872.88;7360598;19;19951;-57
2023/01/27 07:42:24;;;;;;;;;;;;;;;5.43;66.85;102875.56;7353059;19;19919;-55
2023/01/27 07:44:49;;;;;;;;;;;;;;;5.44;67.20;102866.09;7336961;19;19970;-56
2023/01/27 07:47:15;;;;;;;;;;;;;;;5.45;67.19;102873.91;7349006;19;19917;-55
2023/01/27 07:49:40;;;;;;;;;;;;;;;5.46;67.10;102874.78;7350688;19;19931;-55
2023/01/27 07:52:05;;;;;;;;;;;;;;;5.50;67.20;102873.19;7355826;19;20468;-57
2023/01/27 07:54:31;;;;;;;;;;;;;;;5.51;67.47;102867.16;7356994;19;19986;-55
2023/01/27 07:56:58;;;;;;;;;;;;;;;5.52;67.37;102868.91;7359696;19;19936;-56
2023/01/27 07:59:23;;;;;;;;;;;;;;;5.53;67.32;102871.59;7340431;19;19942;-56
2023/01/27 08:01:48;;;;;;;;;;;;;;;5.56;67.05;102873.38;7363740;19;20446;-54
2023/01/27 08:04:14;;;;;;;;;;;;;;;5.56;67.48;102871.66;7360043;19;20015;-56
2023/01/27 08:06:39;;;;;;;;;;;;;;;5.57;67.18;102878.59;7366868;19;19994;-56
2023/01/27 08:09:04;;;;;;;;;;;;;;;5.60;67.06;102875.25;7367351;19;20602;-56
2023/01/27 08:11:29;;;;;;;;;;;;;;;5.62;67.09;102881.34;7366228;19;19923;-55
2023/01/27 08:13:55;;;;;;;;;;;;;;;5.64;67.51;102890.06;7364125;19;20009;-55
2023/01/27 08:16:20;;;;;;;;;;;;;;;5.64;67.27;102887.47;7364430;19;19942;-56
2023/01/27 08:18:45;;;;;;;;;;;;;;;5.65;67.28;102891.81;7367457;19;19930;-56
2023/01/27 08:21:11;;;;;;;;;;;;;;;5.67;67.39;102900.53;7366677;19;25523;-56
2023/01/27 08:23:36;;;;;;;;;;;;;;;5.69;67.58;102899.75;7366314;19;19994;-57
2023/01/27 08:26:03;;;;;;;;;;;;;;;5.70;67.30;102900.63;7364564;19;19915;-56
2023/01/27 08:28:32;;;;;;;;;;;;;;;5.73;67.42;102911.13;7363288;19;19931;-56
2023/01/27 08:31:05;;;;;;;;;;;;;;;5.73;67.42;102911.13;7365910;19;19963;-56
2023/01/27 08:33:30;;;;;;;;;;;;;;;5.76;67.53;102906.00;7365250;19;19922;-56
2023/01/27 08:35:56;;;;;;;;;;;;;;;5.77;67.50;102918.13;7362701;19;20361;-56
2023/01/27 08:38:21;;;;;;;;;;;;;;;5.80;67.26;102922.56;7361357;19;19994;-56
2023/01/27 08:40:46;;;;;;;;;;;;;;;5.82;67.50;102919.16;7366164;19;19952;-55
2023/01/27 08:43:12;;;;;;;;;;;;;;;5.84;67.27;102917.53;7366103;19;19915;-56
2023/01/27 08:45:37;;;;;;;;;;;;;;;5.86;67.43;102923.63;7365221;19;19923;-56
2023/01/27 08:48:04;;;;;;;;;;;;;;;5.87;67.76;102920.19;7363826;19;19919;-56
2023/01/27 08:50:30;;;;;;;;;;;;;;;5.91;67.48;102923.78;7362268;19;19935;-56
2023/01/27 08:52:59;;;;;;;;;;;;;;;5.93;67.79;102920.44;7366059;19;19950;-55
2023/01/27 08:55:28;;;;;;;;;;;;;;;5.94;67.52;102917.00;7363414;19;19927;-55
2023/01/27 08:57:53;;;;;;;;;;;;;;;5.95;67.49;102908.41;7358950;19;20726;-55
2023/01/27 09:00:19;;;;;;;;;;;;;;;5.98;67.48;102908.50;7364376;19;19914;-57
2023/01/27 09:02:44;;;;;;;;;;;;;;;6.00;67.76;102898.16;7358405;19;19942;-57
2023/01/27 09:05:09;;;;;;;;;;;;;;;6.02;67.61;102885.25;7359991;19;19926;-56
2023/01/27 09:07:35;;;;;;;;;;;;;;;6.04;67.93;102892.25;7361482;19;19915;-56
2023/01/27 09:10:00;;;;;;;;;;;;;;;6.06;67.45;102890.56;7357760;19;19918;-56
2023/01/27 09:12:26;;;;;;;;;;;;;;;6.08;67.42;102888.91;7361042;19;19922;-56
2023/01/27 09:14:51;;;;;;;;;;;;;;;6.11;67.98;102890.72;7358110;19;19926;-56
2023/01/27 09:17:18;;;;;;;;;;;;;;;6.13;67.69;102886.44;7363576;19;19935;-56
2023/01/27 09:19:44;;;;;;;;;;;;;;;6.15;68.01;102880.50;7363914;19;19930;-56
2023/01/27 09:22:09;;;;;;;;;;;;;;;6.18;67.65;102887.47;7360716;19;19918;-57
2023/01/27 09:24:34;;;;;;;;;;;;;;;6.22;67.65;102871.16;7361136;19;21099;-56
2023/01/27 09:27:00;;;;;;;;;;;;;;;6.26;67.88;102866.97;7359416;19;19928;-53
2023/01/27 09:29:25;;;;;;;;;;;;;;;6.30;67.92;102872.28;7359924;19;19928;-56
2023/01/27 09:31:50;;;;;;;;;;;;;;;6.37;67.80;102866.44;7357041;19;19915;-56
2023/01/27 09:34:16;;;;;;;;;;;;;;;6.43;67.94;102869.19;7359732;19;19951;-56
2023/01/27 09:36:44;;;;;;;;;;;;;;;6.49;68.04;102872.00;7356155;19;19923;-56
2023/01/27 09:39:10;;;;;;;;;;;;;;;6.58;68.16;102870.47;7356952;19;20687;-56
2023/01/27 09:42:00;;;;;;;;;;;;;;;6.66;68.13;102874.19;7358175;19;19922;-56
2023/01/27 09:44:34;;;;;;;;;;;;;;;6.76;68.27;102871.00;7256907;19;2004385;-56
2023/01/27 09:47:18;;;;;;;;;;;;;;;6.85;68.07;102871.28;7360166;19;20598;-56
2023/01/27 09:49:49;;;;;;;;;;;;;;;6.98;68.09;102862.94;7359290;19;20442;-56
2023/01/27 09:52:15;;;;;;;;;;;;;;;7.10;68.01;102866.75;7363248;19;19925;-57
2023/01/27 09:54:59;;;;;;;;;;;;;;;7.21;68.16;102866.16;7364358;19;19950;-56
2023/01/27 09:57:27;;;;;;;;;;;;;;;7.33;68.07;102865.59;7360458;19;19922;-55
2023/01/27 10:00:04;;;;;;;;;;;;;;;7.46;68.17;102861.59;7363099;19;19929;-55
2023/01/27 10:02:48;;;;;;;;;;;;;;;7.57;67.88;102865.34;7341941;19;19929;-57
2023/01/27 10:05:13;;;;;;;;;;;;;;;7.69;68.10;102859.53;7351368;19;19914;-55
2023/01/27 10:07:59;;;;;;;;;;;;;;;7.78;67.72;102864.97;7355020;19;21314;-57
2023/01/27 10:10:46;;;;;;;;;;;;;;;7.90;68.04;102867.84;7341319;19;19930;-55
2023/01/27 10:13:24;;;;;;;;;;;;;;;7.98;67.80;102868.91;7353317;19;20687;-57
2023/01/27 10:16:09;;;;;;;;;;;;;;;8.07;68.00;102858.72;7347444;19;19994;-56
2023/01/27 10:18:57;;;;;;;;;;;;;;;8.17;68.02;102858.91;7355181;19;19923;-57
2023/01/27 10:21:32;;;;;;;;;;;;;;;8.25;67.96;102862.53;7347757;19;20644;-57
2023/01/27 10:24:17;;;;;;;;;;;;;;;8.30;67.39;102867.00;7352000;19;19970;-56
2023/01/27 10:26:46;;;;;;;;;;;;;;;8.37;67.85;102862.84;7351894;19;19919;-54
2023/01/27 10:29:23;;;;;;;;;;;;;;;8.43;67.52;102862.09;7351963;19;20275;-55
2023/01/27 10:31:54;;;;;;;;;;;;;;;8.51;67.75;102852.69;7353069;19;19948;-56
2023/01/27 10:34:46;;;;;;;;;;;;;;;8.61;68.01;102848.56;7351056;19;20663;-55
2023/01/27 10:37:14;;;;;;;;;;;;;;;8.73;67.66;102851.44;7242888;19;2004400;-57
2023/01/27 10:39:42;;;;;;;;;;;;;;;8.88;68.21;102851.72;7344053;19;19922;-56
2023/01/27 10:42:13;;;;;;;;;;;;;;;9.09;68.88;102851.22;7343283;19;19946;-53
2023/01/27 10:44:48;;;;;;;;;;;;;;;9.32;68.74;102849.00;7345796;19;19925;-55
2023/01/27 10:47:25;;;;;;;;;;;;;;;9.54;68.93;102845.91;7344263;19;19915;-56
2023/01/27 10:49:57;;;;;;;;;;;;;;;9.74;68.40;102837.53;7346309;19;20002;-56
2023/01/27 10:52:25;;;;;;;;;;;;;;;9.92;68.29;102829.06;7352641;19;19918;-57
2023/01/27 10:54:52;;;;;;;;;;;;;;;10.02;67.72;102831.81;7353857;19;19943;-56
2023/01/27 10:57:29;;;;;;;;;;;;;;;10.10;67.21;102834.56;7351426;19;19918;-57
2023/01/27 10:59:57;;;;;;;;;;;;;;;10.13;67.17;102838.06;7354196;19;20736;-57
2023/01/27 11:02:28;;;;;;;;;;;;;;;10.13;66.84;102840.66;7348492;19;20558;-56
2023/01/27 11:04:59;;;;;;;;;;;;;;;10.14;66.75;102842.44;7350825;19;19930;-55
2023/01/27 11:07:24;;;;;;;;;;;;;;;10.19;67.21;102841.59;7353480;19;19937;-56
2023/01/27 11:09:53;;;;;;;;;;;;;;;10.26;67.23;102838.28;7354055;19;19922;-57
2023/01/27 11:12:22;;;;;;;;;;;;;;;10.37;66.98;102844.50;7352917;19;20258;-56
2023/01/27 11:14:49;;;;;;;;;;;;;;;10.52;66.86;102846.44;7350369;19;19934;-56
2023/01/27 11:17:26;;;;;;;;;;;;;;;10.65;66.97;102851.81;7353645;19;19964;-55
2023/01/27 11:20:03;;;;;;;;;;;;;;;10.74;66.76;102847.53;7352475;19;19926;-56
2023/01/27 11:22:48;;;;;;;;;;;;;;;10.78;66.57;102858.03;7353875;19;20331;-57
2023/01/27 11:25:13;;;;;;;;;;;;;;;10.78;66.12;102865.00;7352368;19;19919;-55
2023/01/27 11:27:54;;;;;;;;;;;;;;;10.77;66.13;102865.88;7353265;19;23586;-57
2023/01/27 11:30:24;;;;;;;;;;;;;;;10.73;65.94;102857.13;7350759;19;19960;-56
2023/01/27 11:33:02;;;;;;;;;;;;;;;10.72;65.69;102859.72;7351228;19;19922;-57
2023/01/27 11:35:27;;;;;;;;;;;;;;;10.66;65.46;102855.31;7360124;19;19927;-56
2023/01/27 11:37:53;;;;;;;;;;;;;;;10.68;65.61;102869.25;7358920;19;19938;-56
2023/01/27 11:40:24;;;;;;;;;;;;;;;10.67;65.88;102862.28;7359662;19;19923;-57
2023/01/27 11:42:50;;;;;;;;;;;;;;;10.65;65.37;102864.00;7358968;19;19930;-56
2023/01/27 11:45:17;;;;;;;;;;;;;;;10.62;65.77;102871.81;7363111;19;25239;-57
2023/01/27 11:47:43;;;;;;;;;;;;;;;10.59;65.41;102870.03;7367063;19;19919;-57
2023/01/27 11:50:16;;;;;;;;;;;;;;;10.59;65.75;102869.13;7354611;19;22952;-56
2023/01/27 11:52:43;;;;;;;;;;;;;;;10.59;65.62;102858.69;7367446;19;19928;-56
2023/01/27 11:55:19;;;;;;;;;;;;;;;10.62;65.91;102857.00;7365995;19;19945;-55
2023/01/27 11:57:48;;;;;;;;;;;;;;;10.71;66.00;102850.13;7368103;19;19922;-56
2023/01/27 12:00:36;;;;;;;;;;;;;;;10.83;66.57;102850.25;7365240;19;19917;-55
2023/01/27 12:03:12;;;;;;;;;;;;;;;11.01;66.66;102858.31;7367234;19;20261;-57
2023/01/27 12:05:42;;;;;;;;;;;;;;;11.18;66.49;102859.31;7368060;19;20262;-56
2023/01/27 12:08:07;;;;;;;;;;;;;;;11.37;66.73;102846.44;7366326;19;19923;-56
2023/01/27 12:10:32;;;;;;;;;;;;;;;11.56;66.54;102848.34;7367781;19;19915;-57
2023/01/27 12:13:00;;;;;;;;;;;;;;;11.82;66.86;102852.91;7366612;19;20057;-57
2023/01/27 12:15:27;;;;;;;;;;;;;;;12.03;67.24;102828.59;7369043;19;19952;-56
2023/01/27 12:17:58;;;;;;;;;;;;;;;12.50;67.52;102846.25;7368894;19;20647;-55
2023/01/27 12:20:35;;;;;;;;;;;;;;;12.89;67.99;102845.50;7368226;19;19946;-56
2023/01/27 12:23:19;;;;;;;;;;;;;;;13.29;66.94;102837.72;7367448;19;20335;-57
2023/01/27 12:25:46;;;;;;;;;;;;;;;13.72;66.83;102831.53;7364770;19;20489;-57
2023/01/27 12:28:22;;;;;;;;;;;;;;;14.09;66.27;102820.06;7366525;19;19923;-57
2023/01/27 12:30:48;;;;;;;;;;;;;;;14.39;66.07;102808.56;7363875;19;19926;-57
2023/01/27 12:33:19;;;;;;;;;;;;;;;14.57;64.98;102808.50;7364493;19;20939;-57
2023/01/27 12:35:48;;;;;;;;;;;;;;;14.64;64.08;102806.69;7363523;19;19926;-55
2023/01/27 12:38:16;;;;;;;;;;;;;;;14.69;63.74;102797.03;7364901;19;19942;-57
2023/01/27 12:40:43;;;;;;;;;;;;;;;14.70;63.33;102791.78;7367928;19;19937;-56
2023/01/27 12:43:14;;;;;;;;;;;;;;;14.77;64.15;102793.47;7363249;19;19926;-57
2023/01/27 12:45:39;;;;;;;;;;;;;;;14.89;63.68;102786.38;7361998;19;19922;-57
2023/01/27 12:48:08;;;;;;;;;;;;;;;15.07;63.82;102785.38;7362321;19;19918;-57
2023/01/27 12:50:37;;;;;;;;;;;;;;;15.29;63.35;102787.78;7363971;19;19917;-57
2023/01/27 12:53:04;;;;;;;;;;;;;;;15.55;63.49;102773.50;7364375;19;20002;-57
2023/01/27 12:55:34;;;;;;;;;;;;;;;15.78;63.79;102776.81;7363774;19;19994;-56
2023/01/27 12:58:00;;;;;;;;;;;;;;;15.87;62.24;102777.59;7361986;19;19921;-57
2023/01/27 13:00:25;;;;;;;;;;;;;;;15.91;61.53;102768.75;7364468;19;19922;-57
2023/01/27 13:02:55;;;;;;;;;;;;;;;15.94;61.83;102771.34;7364638;19;19922;-56
2023/01/27 13:05:21;;;;;;;;;;;;;;;15.99;61.43;102766.91;7361744;19;19915;-57
2023/01/27 13:07:51;;;;;;;;;;;;;;;16.04;61.36;102762.44;7361201;19;19942;-56
2023/01/27 13:10:16;;;;;;;;;;;;;;;16.07;61.45;102755.38;7358565;19;19942;-57
2023/01/27 13:12:47;;;;;;;;;;;;;;;16.11;61.09;102757.97;7367367;19;25291;-56
2023/01/27 13:15:18;;;;;;;;;;;;;;;16.20;61.74;102750.81;7358217;19;19918;-56
2023/01/27 13:17:44;;;;;;;;;;;;;;;16.37;62.75;102753.19;7359071;19;19918;-55
2023/01/27 13:20:21;;;;;;;;;;;;;;;16.54;63.10;102748.56;7361202;19;20013;-56
2023/01/27 13:22:48;;;;;;;;;;;;;;;16.71;62.45;102748.34;7364175;19;19926;-57